Time;durP1;ratioP1;P1;durP2;ratioP2;P2;SDS_P1;SDS_P2;PMS_P1;PMS_P2;Temp;Humidity;BMP_temperature;BMP_pressure;BME280_temperature;BME280_humidity;BME280_pressure;Samples;Min_cycle;Max_cycle;Signal;HPM_P1;HPM_P2
2022/12/26 00:00:53;;;;;;;23.90;2.00;;;;;;;;;;4980203;28;20596;-96
2022/12/26 00:03:18;;;;;;;26.73;1.83;;;;;;;;;;4977971;28;20528;-96
2022/12/26 00:05:43;;;;;;;19.73;2.20;;;;;;;;;;4977637;28;20019;-96
2022/12/26 00:08:09;;;;;;;20.58;2.47;;;;;;;;;;4977410;28;20401;-94
2022/12/26 00:10:34;;;;;;;16.98;1.40;;;;;;;;;;4978654;28;20062;-96
2022/12/26 00:12:59;;;;;;;20.20;2.47;;;;;;;;;;4979107;28;20082;-95
2022/12/26 00:15:25;;;;;;;17.92;2.83;;;;;;;;;;4978941;28;20026;-94
2022/12/26 00:17:50;;;;;;;22.58;2.88;;;;;;;;;;4978627;28;20023;-94
2022/12/26 00:20:16;;;;;;;17.80;2.10;;;;;;;;;;4978188;28;20106;-94
2022/12/26 00:22:41;;;;;;;27.83;2.33;;;;;;;;;;4977711;28;20073;-96
2022/12/26 00:25:07;;;;;;;16.73;1.88;;;;;;;;;;4978658;28;20485;-94
2022/12/26 00:27:32;;;;;;;18.60;1.52;;;;;;;;;;4978813;28;20042;-94
2022/12/26 00:29:57;;;;;;;16.00;1.23;;;;;;;;;;4979107;28;20057;-96
2022/12/26 00:32:23;;;;;;;21.00;3.20;;;;;;;;;;4978637;28;20030;-95
2022/12/26 00:34:48;;;;;;;25.00;4.97;;;;;;;;;;4978169;28;20023;-94
2022/12/26 00:37:13;;;;;;;14.15;3.08;;;;;;;;;;4979352;28;20496;-96
2022/12/26 00:39:39;;;;;;;18.95;2.17;;;;;;;;;;4980448;28;20042;-96
2022/12/26 00:42:04;;;;;;;16.50;1.33;;;;;;;;;;4978057;28;20027;-96
2022/12/26 00:44:29;;;;;;;13.40;1.25;;;;;;;;;;4976204;28;20022;-96
2022/12/26 00:46:55;;;;;;;20.60;1.90;;;;;;;;;;4975081;28;20050;-96
2022/12/26 00:49:20;;;;;;;11.73;1.20;;;;;;;;;;4974405;28;20023;-96
2022/12/26 00:51:45;;;;;;;13.57;2.05;;;;;;;;;;4975148;28;20022;-96
2022/12/26 00:54:11;;;;;;;10.23;2.42;;;;;;;;;;4977255;28;20069;-96
2022/12/26 00:56:36;;;;;;;7.05;1.20;;;;;;;;;;4976547;28;20022;-95
2022/12/26 00:59:01;;;;;;;8.50;1.40;;;;;;;;;;4977340;28;20027;-96
2022/12/26 01:01:29;;;;;;;14.05;1.63;;;;;;;;;;4977832;28;20015;-95
2022/12/26 01:03:55;;;;;;;24.20;1.85;;;;;;;;;;4977902;28;20026;-96
2022/12/26 01:06:21;;;;;;;14.32;1.55;;;;;;;;;;4977597;28;20105;-96
2022/12/26 01:08:46;;;;;;;15.00;1.90;;;;;;;;;;4977209;28;20475;-96
2022/12/26 01:11:12;;;;;;;17.05;2.90;;;;;;;;;;4977701;28;20018;-96
2022/12/26 01:13:37;;;;;;;23.92;5.43;;;;;;;;;;4977392;28;20497;-96
2022/12/26 01:16:04;;;;;;;12.45;2.72;;;;;;;;;;4977195;28;20026;-96
2022/12/26 01:18:29;;;;;;;25.02;3.28;;;;;;;;;;4977314;28;20053;-96
2022/12/26 01:20:59;;;;;;;22.70;1.92;;;;;;;;;;4976636;28;20393;-96
2022/12/26 01:23:25;;;;;;;16.95;1.50;;;;;;;;;;4976809;28;20127;-96
2022/12/26 01:25:50;;;;;;;16.85;2.20;;;;;;;;;;4978400;28;20078;-95
2022/12/26 01:28:15;;;;;;;18.30;2.22;;;;;;;;;;4976786;28;20121;-96
2022/12/26 01:30:41;;;;;;;15.82;1.83;;;;;;;;;;4976703;28;20014;-96
2022/12/26 01:33:06;;;;;;;20.52;2.58;;;;;;;;;;4976851;28;20025;-96
2022/12/26 01:35:31;;;;;;;18.83;1.50;;;;;;;;;;4977263;28;20516;-96
2022/12/26 01:37:57;;;;;;;19.13;1.92;;;;;;;;;;4976728;28;20027;-96
2022/12/26 01:40:23;;;;;;;15.63;1.75;;;;;;;;;;4976004;28;20023;-96
2022/12/26 01:42:48;;;;;;;9.30;1.75;;;;;;;;;;4977147;28;20027;-96
2022/12/26 01:45:25;;;;;;;11.10;1.85;;;;;;;;;;4976965;28;20554;-96
2022/12/26 01:47:53;;;;;;;11.52;1.20;;;;;;;;;;4975807;28;20431;-96
2022/12/26 01:50:31;;;;;;;15.88;1.30;;;;;;;;;;4976421;28;20026;-95
2022/12/26 01:52:58;;;;;;;15.80;1.88;;;;;;;;;;4975835;28;20072;-96
2022/12/26 01:55:24;;;;;;;9.50;1.95;;;;;;;;;;4977108;28;20085;-96
2022/12/26 01:57:56;;;;;;;22.15;1.85;;;;;;;;;;4976519;28;20469;-96
2022/12/26 02:00:22;;;;;;;17.85;1.48;;;;;;;;;;4976851;28;20033;-96
2022/12/26 02:05:34;;;;;;;19.00;1.98;;;;;;;;;;4977653;28;20073;-96
2022/12/26 02:08:15;;;;;;;10.80;1.80;;;;;;;;;;4976418;28;20540;-96
2022/12/26 02:10:51;;;;;;;11.60;1.85;;;;;;;;;;4976238;28;20043;-96
2022/12/26 02:13:17;;;;;;;13.90;1.67;;;;;;;;;;4975611;28;20033;-96
2022/12/26 02:15:43;;;;;;;8.43;1.40;;;;;;;;;;4973992;28;20596;-96
2022/12/26 02:18:08;;;;;;;6.30;1.63;;;;;;;;;;4974793;28;20373;-96
2022/12/26 02:20:57;;;;;;;18.02;2.35;;;;;;;;;;4976539;28;20473;-96
2022/12/26 02:23:28;;;;;;;10.32;2.03;;;;;;;;;;4976707;28;20026;-96
2022/12/26 02:26:23;;;;;;;12.55;2.28;;;;;;;;;;4976297;28;20023;-96
2022/12/26 02:28:48;;;;;;;8.15;1.50;;;;;;;;;;5009798;28;20030;-96
2022/12/26 02:31:16;;;;;;;12.38;1.70;;;;;;;;;;4976546;28;20504;-96
2022/12/26 02:33:47;;;;;;;13.02;2.30;;;;;;;;;;4976553;28;20019;-96
2022/12/26 02:36:25;;;;;;;9.85;2.03;;;;;;;;;;4976371;28;20038;-96
2022/12/26 02:38:50;;;;;;;14.10;1.90;;;;;;;;;;4976361;28;20023;-95
2022/12/26 02:41:18;;;;;;;10.85;1.95;;;;;;;;;;4977069;28;20023;-96
2022/12/26 02:43:50;;;;;;;14.55;1.92;;;;;;;;;;4975164;28;20113;-96
2022/12/26 02:49:24;;;;;;;15.73;1.98;;;;;;;;;;4981869;28;20042;-96
2022/12/26 03:14:29;;;;;;;3.75;0.95;;;;;;;;;;4980903;28;20547;-96
2022/12/26 03:20:00;;;;;;;6.28;0.75;;;;;;;;;;4980712;28;20035;-96
2022/12/26 03:22:30;;;;;;;1.67;0.35;;;;;;;;;;4978917;28;20045;-96
2022/12/26 03:27:42;;;;;;;4.20;0.40;;;;;;;;;;4980175;28;20576;-96
2022/12/26 03:32:54;;;;;;;4.70;0.43;;;;;;;;;;4980944;28;20066;-96
2022/12/26 03:35:20;;;;;;;4.82;0.52;;;;;;;;;;4979617;28;20115;-96
2022/12/26 03:37:49;;;;;;;2.42;0.43;;;;;;;;;;4979125;28;20046;-96
2022/12/26 04:20:23;;;;;;;1.35;0.30;;;;;;;;;;4979034;28;20413;-96
2022/12/26 04:45:06;;;;;;;0.90;0.13;;;;;;;;;;4978304;28;20054;-96
2022/12/26 04:47:32;;;;;;;1.70;0.20;;;;;;;;;;4977590;28;20481;-96
2022/12/26 04:50:13;;;;;;;2.25;0.30;;;;;;;;;;4977071;28;20366;-96
2022/12/26 04:52:57;;;;;;;1.52;0.30;;;;;;;;;;4978240;28;20039;-96
2022/12/26 04:55:23;;;;;;;2.33;0.20;;;;;;;;;;4978138;28;20053;-95
2022/12/26 04:57:48;;;;;;;0.20;0.10;;;;;;;;;;4977964;28;20023;-96
2022/12/26 05:00:14;;;;;;;5.88;0.30;;;;;;;;;;4977740;28;20053;-96
2022/12/26 05:11:02;;;;;;;4.22;0.40;;;;;;;;;;4978638;28;20062;-96
2022/12/26 05:13:27;;;;;;;1.25;0.20;;;;;;;;;;4976588;28;20022;-95
2022/12/26 05:29:35;;;;;;;1.92;0.35;;;;;;;;;;4978081;28;20061;-96
2022/12/26 05:32:00;;;;;;;3.25;0.60;;;;;;;;;;4976880;28;20023;-96
2022/12/26 05:34:26;;;;;;;6.75;0.52;;;;;;;;;;4977194;28;20017;-96
2022/12/26 05:36:54;;;;;;;1.90;0.35;;;;;;;;;;4976672;28;20095;-96
2022/12/26 05:39:19;;;;;;;4.63;2.05;;;;;;;;;;4977545;28;20039;-96
2022/12/26 05:41:44;;;;;;;7.63;0.77;;;;;;;;;;4976753;28;20045;-96
2022/12/26 05:44:10;;;;;;;6.47;0.85;;;;;;;;;;4976088;28;20027;-96
2022/12/26 05:46:36;;;;;;;8.63;0.90;;;;;;;;;;4975268;28;20077;-96
2022/12/26 05:49:02;;;;;;;5.90;0.60;;;;;;;;;;4975037;28;20022;-95
2022/12/26 05:51:28;;;;;;;10.45;1.05;;;;;;;;;;4977214;28;20113;-96
2022/12/26 05:53:53;;;;;;;6.38;0.75;;;;;;;;;;4977248;28;20062;-96
2022/12/26 05:56:19;;;;;;;6.97;0.77;;;;;;;;;;4977159;28;20023;-96
2022/12/26 05:58:44;;;;;;;9.05;1.30;;;;;;;;;;4976036;28;20022;-96
2022/12/26 06:01:11;;;;;;;4.43;0.80;;;;;;;;;;4976451;28;20031;-96
2022/12/26 06:03:38;;;;;;;6.80;0.90;;;;;;;;;;4977585;28;20021;-96
2022/12/26 06:06:04;;;;;;;5.53;0.85;;;;;;;;;;4978886;28;20527;-96
2022/12/26 06:08:29;;;;;;;3.35;0.50;;;;;;;;;;4978138;28;20033;-96
2022/12/26 06:10:55;;;;;;;6.38;1.63;;;;;;;;;;4980067;28;20479;-96
2022/12/26 06:13:20;;;;;;;3.88;0.68;;;;;;;;;;4981546;28;20026;-96
2022/12/26 06:15:45;;;;;;;4.40;0.60;;;;;;;;;;4979994;28;20113;-95
2022/12/26 06:18:11;;;;;;;3.55;0.60;;;;;;;;;;4979236;28;20023;-95
2022/12/26 06:20:39;;;;;;;10.35;2.78;;;;;;;;;;4980363;28;20027;-96
2022/12/26 06:23:05;;;;;;;2.38;0.70;;;;;;;;;;4980848;28;20157;-95
2022/12/26 06:25:31;;;;;;;7.68;0.88;;;;;;;;;;4982263;28;20046;-95
2022/12/26 06:27:56;;;;;;;6.35;1.48;;;;;;;;;;4983371;28;20035;-96
2022/12/26 06:30:21;;;;;;;8.23;1.10;;;;;;;;;;4982163;28;20556;-96
2022/12/26 06:32:47;;;;;;;13.25;0.93;;;;;;;;;;4982420;28;20022;-96
2022/12/26 06:35:12;;;;;;;6.50;1.20;;;;;;;;;;4981554;28;20051;-96
2022/12/26 06:37:37;;;;;;;14.98;2.10;;;;;;;;;;4980807;28;20078;-96
2022/12/26 06:40:03;;;;;;;3.05;1.00;;;;;;;;;;4980107;28;20019;-96
2022/12/26 06:42:29;;;;;;;5.10;1.10;;;;;;;;;;4981456;28;20022;-96
2022/12/26 06:44:54;;;;;;;8.07;1.45;;;;;;;;;;4981647;28;20117;-96
2022/12/26 06:47:20;;;;;;;3.10;1.08;;;;;;;;;;4981247;28;20079;-95
2022/12/26 06:49:45;;;;;;;8.63;1.10;;;;;;;;;;4981240;28;20484;-96
2022/12/26 06:52:12;;;;;;;11.48;1.33;;;;;;;;;;4981146;28;20366;-96
2022/12/26 06:54:38;;;;;;;3.58;1.92;;;;;;;;;;4983686;28;20029;-96
2022/12/26 06:57:03;;;;;;;10.00;4.50;;;;;;;;;;4982792;28;20058;-96
2022/12/26 06:59:28;;;;;;;10.95;1.48;;;;;;;;;;4981180;28;20138;-96
2022/12/26 07:01:54;;;;;;;9.13;1.38;;;;;;;;;;4979084;28;20023;-96
2022/12/26 07:04:19;;;;;;;5.32;1.40;;;;;;;;;;4977474;28;20080;-96
2022/12/26 07:06:45;;;;;;;8.13;1.30;;;;;;;;;;4978359;28;20030;-96
2022/12/26 07:09:13;;;;;;;4.68;1.20;;;;;;;;;;4979641;28;20088;-96
2022/12/26 07:11:39;;;;;;;5.70;1.20;;;;;;;;;;4980806;28;20015;-96
2022/12/26 07:14:05;;;;;;;11.75;1.92;;;;;;;;;;4981293;28;20027;-95
2022/12/26 07:16:33;;;;;;;10.18;1.50;;;;;;;;;;4981073;28;20057;-96
2022/12/26 07:19:01;;;;;;;11.95;1.80;;;;;;;;;;4981221;28;20086;-96
2022/12/26 07:21:27;;;;;;;21.45;3.05;;;;;;;;;;4980183;28;20019;-96
2022/12/26 07:23:53;;;;;;;7.15;1.15;;;;;;;;;;4980136;28;20037;-96
2022/12/26 07:26:19;;;;;;;5.68;1.40;;;;;;;;;;4979699;28;20017;-96
2022/12/26 07:28:44;;;;;;;8.90;1.63;;;;;;;;;;4980569;28;20125;-96
2022/12/26 07:31:14;;;;;;;9.13;1.40;;;;;;;;;;4979346;28;20019;-96
2022/12/26 07:33:40;;;;;;;3.95;1.23;;;;;;;;;;4980233;28;20022;-96
2022/12/26 07:36:05;;;;;;;4.05;1.08;;;;;;;;;;4979735;28;20023;-96
2022/12/26 07:38:31;;;;;;;7.03;1.40;;;;;;;;;;4980070;28;20421;-96
2022/12/26 07:40:57;;;;;;;10.25;1.17;;;;;;;;;;4979483;28;20022;-96
2022/12/26 07:43:22;;;;;;;15.02;2.40;;;;;;;;;;4980531;28;20019;-96
2022/12/26 07:45:48;;;;;;;5.38;1.65;;;;;;;;;;4980484;28;20058;-96
2022/12/26 07:48:13;;;;;;;8.50;2.15;;;;;;;;;;4979843;28;20030;-96
2022/12/26 07:50:39;;;;;;;8.27;1.45;;;;;;;;;;4980430;28;20281;-96
2022/12/26 07:53:04;;;;;;;5.70;1.55;;;;;;;;;;4980414;28;20042;-96
2022/12/26 07:55:33;;;;;;;8.35;1.67;;;;;;;;;;4982396;28;20019;-96
2022/12/26 07:57:58;;;;;;;7.85;1.90;;;;;;;;;;4981567;28;20045;-96
2022/12/26 08:00:23;;;;;;;3.00;1.52;;;;;;;;;;4980212;28;20469;-96
2022/12/26 08:02:49;;;;;;;11.80;1.88;;;;;;;;;;4979768;28;20041;-96
2022/12/26 08:05:16;;;;;;;9.68;2.45;;;;;;;;;;4979741;28;20030;-96
2022/12/26 08:07:41;;;;;;;6.57;2.00;;;;;;;;;;4986972;28;20066;-96
2022/12/26 08:10:07;;;;;;;19.83;3.10;;;;;;;;;;4987915;28;20031;-96
2022/12/26 08:12:33;;;;;;;7.22;1.88;;;;;;;;;;4988211;28;20062;-96
2022/12/26 08:14:58;;;;;;;6.07;1.73;;;;;;;;;;4987536;28;20015;-96
2022/12/26 08:17:24;;;;;;;5.38;2.17;;;;;;;;;;4987632;28;20030;-96
2022/12/26 08:19:52;;;;;;;8.77;2.28;;;;;;;;;;4986732;28;20023;-96
2022/12/26 08:22:23;;;;;;;10.27;1.88;;;;;;;;;;4987284;28;20812;-96
2022/12/26 08:24:51;;;;;;;17.27;2.60;;;;;;;;;;4987438;28;20015;-96
2022/12/26 08:27:19;;;;;;;11.85;2.58;;;;;;;;;;4986983;28;20027;-96
2022/12/26 08:29:52;;;;;;;5.97;2.08;;;;;;;;;;4987035;28;20031;-96
2022/12/26 08:32:22;;;;;;;16.42;3.28;;;;;;;;;;4986529;28;20026;-96
2022/12/26 08:34:48;;;;;;;11.88;2.53;;;;;;;;;;4985122;28;20029;-96
2022/12/26 08:37:13;;;;;;;12.75;2.42;;;;;;;;;;4984435;28;20019;-96
2022/12/26 08:39:39;;;;;;;19.35;3.22;;;;;;;;;;4983481;28;20031;-96
2022/12/26 08:42:07;;;;;;;15.82;2.88;;;;;;;;;;4986402;28;20049;-96
2022/12/26 08:44:32;;;;;;;12.27;2.83;;;;;;;;;;4985860;28;20006;-96
2022/12/26 08:46:58;;;;;;;13.38;3.33;;;;;;;;;;4984039;28;20045;-96
2022/12/26 08:49:23;;;;;;;22.48;3.30;;;;;;;;;;4983615;28;20046;-95
2022/12/26 08:51:49;;;;;;;20.08;3.90;;;;;;;;;;4984101;28;20114;-96
2022/12/26 08:54:17;;;;;;;13.25;2.63;;;;;;;;;;4985526;28;20027;-96
2022/12/26 08:56:42;;;;;;;12.15;3.38;;;;;;;;;;4983221;28;20019;-96
2022/12/26 08:59:08;;;;;;;14.73;2.88;;;;;;;;;;4983990;28;20026;-96
2022/12/26 09:01:37;;;;;;;13.45;3.67;;;;;;;;;;4985939;28;20014;-96
2022/12/26 09:04:05;;;;;;;18.05;3.95;;;;;;;;;;4985932;28;20033;-96
2022/12/26 09:06:32;;;;;;;16.05;2.95;;;;;;;;;;4985080;28;20031;-96
2022/12/26 09:09:06;;;;;;;12.32;3.55;;;;;;;;;;4983835;28;20035;-96
2022/12/26 09:11:32;;;;;;;12.32;2.88;;;;;;;;;;4983372;28;20030;-96
2022/12/26 09:13:58;;;;;;;12.27;2.78;;;;;;;;;;4983457;28;20107;-96
2022/12/26 09:16:29;;;;;;;13.07;3.17;;;;;;;;;;4984014;28;20501;-96
2022/12/26 09:18:56;;;;;;;17.60;3.10;;;;;;;;;;4984615;28;20023;-96
2022/12/26 09:21:24;;;;;;;19.88;3.60;;;;;;;;;;4983701;28;20236;-96
2022/12/26 09:23:54;;;;;;;16.33;2.88;;;;;;;;;;4982996;28;20023;-96
2022/12/26 09:26:20;;;;;;;11.18;2.63;;;;;;;;;;4982680;28;20019;-96
2022/12/26 09:28:46;;;;;;;23.38;4.57;;;;;;;;;;4982123;28;20037;-96
2022/12/26 09:31:22;;;;;;;14.30;3.05;;;;;;;;;;4982102;28;20035;-96
2022/12/26 09:33:48;;;;;;;19.50;2.90;;;;;;;;;;4982579;28;20030;-96
2022/12/26 09:36:15;;;;;;;14.05;2.38;;;;;;;;;;4984018;28;20498;-96
2022/12/26 09:38:44;;;;;;;18.13;3.33;;;;;;;;;;4983623;28;20019;-96
2022/12/26 09:41:19;;;;;;;26.90;4.20;;;;;;;;;;4982565;28;20034;-96
2022/12/26 09:43:54;;;;;;;28.27;4.50;;;;;;;;;;4981844;28;20022;-96
2022/12/26 09:46:40;;;;;;;15.05;3.60;;;;;;;;;;4981237;28;20054;-96
2022/12/26 09:49:18;;;;;;;9.20;3.17;;;;;;;;;;4982440;28;20038;-96
2022/12/26 09:51:46;;;;;;;12.40;2.92;;;;;;;;;;4983823;28;20023;-96
2022/12/26 09:54:18;;;;;;;18.83;3.45;;;;;;;;;;4982129;28;20158;-96
2022/12/26 09:56:45;;;;;;;20.63;4.78;;;;;;;;;;4983293;28;20022;-96
2022/12/26 09:59:13;;;;;;;11.95;4.57;;;;;;;;;;4983542;28;20029;-96
2022/12/26 10:01:47;;;;;;;13.18;3.78;;;;;;;;;;4984058;28;20067;-96
2022/12/26 10:04:33;;;;;;;30.35;5.75;;;;;;;;;;4981122;28;20026;-96
2022/12/26 10:07:04;;;;;;;12.10;5.00;;;;;;;;;;4980364;28;20046;-96
2022/12/26 10:09:38;;;;;;;24.55;4.88;;;;;;;;;;4981367;28;20042;-96
2022/12/26 10:12:03;;;;;;;20.73;4.40;;;;;;;;;;4980785;28;20750;-96
2022/12/26 10:14:52;;;;;;;26.95;5.25;;;;;;;;;;4980766;28;20349;-96
2022/12/26 10:17:29;;;;;;;14.55;4.65;;;;;;;;;;4984359;28;20038;-96
2022/12/26 10:19:57;;;;;;;16.38;4.30;;;;;;;;;;4980907;28;20077;-96
2022/12/26 10:22:42;;;;;;;28.45;4.10;;;;;;;;;;4981445;28;20109;-96
2022/12/26 10:25:16;;;;;;;21.27;4.70;;;;;;;;;;4981559;28;20031;-96
2022/12/26 10:27:43;;;;;;;21.10;3.58;;;;;;;;;;4981407;28;20046;-96
2022/12/26 10:30:14;;;;;;;32.55;4.32;;;;;;;;;;4981670;28;20465;-96
2022/12/26 10:32:42;;;;;;;12.90;4.25;;;;;;;;;;4981777;28;20090;-96
2022/12/26 10:35:21;;;;;;;19.95;4.18;;;;;;;;;;4982512;28;20090;-96
2022/12/26 10:37:49;;;;;;;17.45;4.45;;;;;;;;;;4982521;28;20019;-96
2022/12/26 10:40:14;;;;;;;23.10;4.43;;;;;;;;;;4983504;28;20476;-96
2022/12/26 10:42:53;;;;;;;17.67;4.50;;;;;;;;;;4982545;28;20026;-96
2022/12/26 10:45:28;;;;;;;19.33;3.90;;;;;;;;;;4982231;28;20043;-96
2022/12/26 10:47:53;;;;;;;11.93;3.15;;;;;;;;;;4977787;28;20034;-96
2022/12/26 10:50:23;;;;;;;21.58;3.40;;;;;;;;;;4977795;28;20019;-96
2022/12/26 10:52:49;;;;;;;24.75;3.92;;;;;;;;;;4982832;28;20106;-96
2022/12/26 10:55:16;;;;;;;14.85;2.83;;;;;;;;;;4984559;28;20026;-96
2022/12/26 10:57:43;;;;;;;15.38;2.40;;;;;;;;;;4982752;28;20038;-96
2022/12/26 11:00:24;;;;;;;9.40;2.22;;;;;;;;;;4983657;28;20034;-96
2022/12/26 11:03:09;;;;;;;12.20;1.95;;;;;;;;;;4985148;28;20019;-96
2022/12/26 11:05:48;;;;;;;12.32;2.35;;;;;;;;;;4986172;28;20057;-96
2022/12/26 11:08:32;;;;;;;11.65;2.03;;;;;;;;;;4985777;28;20035;-96
2022/12/26 11:11:03;;;;;;;16.50;3.92;;;;;;;;;;4987498;28;20030;-96
2022/12/26 11:13:31;;;;;;;9.95;3.20;;;;;;;;;;4985960;28;20441;-96
2022/12/26 11:15:56;;;;;;;12.75;1.98;;;;;;;;;;4984527;28;20052;-96
2022/12/26 11:18:28;;;;;;;7.72;1.38;;;;;;;;;;4986657;28;20074;-96
2022/12/26 11:20:53;;;;;;;10.32;1.38;;;;;;;;;;4986856;28;20029;-96
2022/12/26 11:23:23;;;;;;;5.88;1.20;;;;;;;;;;4982704;28;20465;-96
2022/12/26 11:25:50;;;;;;;6.55;2.20;;;;;;;;;;4980337;28;20023;-96
2022/12/26 11:28:22;;;;;;;8.77;1.13;;;;;;;;;;4980028;28;20031;-96
2022/12/26 11:30:51;;;;;;;12.50;1.40;;;;;;;;;;4979730;28;20519;-95
2022/12/26 11:33:27;;;;;;;6.72;0.90;;;;;;;;;;4978915;28;20034;-96
2022/12/26 11:36:04;;;;;;;4.07;0.75;;;;;;;;;;4979532;28;20030;-96
2022/12/26 11:38:34;;;;;;;5.72;1.08;;;;;;;;;;4980663;28;20026;-96
2022/12/26 11:41:31;;;;;;;3.88;1.02;;;;;;;;;;4980043;28;20026;-96
2022/12/26 11:44:13;;;;;;;9.90;0.73;;;;;;;;;;5000065;28;20038;-96
2022/12/26 11:46:44;;;;;;;4.72;0.60;;;;;;;;;;4979581;28;20023;-96
2022/12/26 11:49:16;;;;;;;3.28;0.32;;;;;;;;;;4979822;28;20050;-96
2022/12/26 11:51:41;;;;;;;;;;;;;;;;;;4978740;28;20050;-96
2022/12/26 11:54:21;;;;;;;2.00;0.40;;;;;;;;;;4979247;28;19961;-96
2022/12/26 11:56:47;;;;;;;5.07;0.63;;;;;;;;;;4979782;28;20261;-96
2022/12/26 11:59:22;;;;;;;4.30;0.60;;;;;;;;;;4980175;28;20025;-96
2022/12/26 12:02:03;;;;;;;4.60;0.65;;;;;;;;;;4979900;28;20022;-96
2022/12/26 12:04:28;;;;;;;3.35;0.65;;;;;;;;;;4979912;28;20050;-96
2022/12/26 12:06:59;;;;;;;11.10;0.80;;;;;;;;;;4980328;28;20485;-96
2022/12/26 12:09:48;;;;;;;1.17;0.50;;;;;;;;;;4979945;28;20169;-96
2022/12/26 12:12:17;;;;;;;3.90;0.73;;;;;;;;;;4980124;28;20030;-96
2022/12/26 12:15:00;;;;;;;8.32;0.80;;;;;;;;;;4982315;28;20027;-96
2022/12/26 12:17:46;;;;;;;2.40;0.52;;;;;;;;;;4980759;28;20023;-96
2022/12/26 12:20:14;;;;;;;2.70;0.40;;;;;;;;;;4979604;28;20019;-96
2022/12/26 12:22:46;;;;;;;4.68;0.43;;;;;;;;;;4979490;28;20477;-96
2022/12/26 12:25:11;;;;;;;10.40;0.88;;;;;;;;;;4978671;28;20042;-96
2022/12/26 12:27:49;;;;;;;4.93;0.55;;;;;;;;;;4978211;28;20035;-96
2022/12/26 12:30:21;;;;;;;7.00;2.65;;;;;;;;;;4977407;28;20022;-96
2022/12/26 12:33:26;;;;;;;3.08;0.60;;;;;;;;;;4980469;28;20030;-96
2022/12/26 12:36:00;;;;;;;2.22;0.30;;;;;;;;;;4979708;28;20097;-96
2022/12/26 12:38:31;;;;;;;3.63;0.50;;;;;;;;;;4979527;28;20018;-96
2022/12/26 12:41:19;;;;;;;1.83;0.40;;;;;;;;;;4978886;28;20018;-96
2022/12/26 12:43:51;;;;;;;5.07;0.25;;;;;;;;;;4979509;28;20026;-96
2022/12/26 12:46:37;;;;;;;6.22;0.55;;;;;;;;;;4979501;28;20030;-96
2022/12/26 12:49:12;;;;;;;2.78;0.55;;;;;;;;;;4979232;28;20042;-96
2022/12/26 12:51:37;;;;;;;3.33;0.57;;;;;;;;;;4980627;28;20025;-96
2022/12/26 12:54:06;;;;;;;2.83;0.60;;;;;;;;;;4982234;28;20090;-96
2022/12/26 12:56:31;;;;;;;2.75;0.57;;;;;;;;;;4983235;28;20039;-96
2022/12/26 12:59:15;;;;;;;6.30;0.55;;;;;;;;;;4982213;28;20488;-96
2022/12/26 13:01:50;;;;;;;3.95;1.35;;;;;;;;;;4982146;28;20027;-96
2022/12/26 13:04:19;;;;;;;5.90;0.40;;;;;;;;;;4982860;28;20027;-96
2022/12/26 13:07:13;;;;;;;0.85;0.28;;;;;;;;;;4980660;28;20019;-95
2022/12/26 13:09:48;;;;;;;3.42;0.38;;;;;;;;;;4984005;28;20558;-95
2022/12/26 13:12:20;;;;;;;4.47;0.45;;;;;;;;;;4977334;28;20027;-96
2022/12/26 13:14:48;;;;;;;3.55;0.43;;;;;;;;;;4978696;28;20023;-96
2022/12/26 13:17:16;;;;;;;3.15;0.45;;;;;;;;;;4977317;28;20034;-96
2022/12/26 13:19:55;;;;;;;3.55;0.50;;;;;;;;;;4978579;28;20038;-96
2022/12/26 13:22:26;;;;;;;1.83;0.32;;;;;;;;;;4979957;28;20062;-96
2022/12/26 13:25:01;;;;;;;2.93;0.40;;;;;;;;;;4981068;28;20093;-96
2022/12/26 13:27:29;;;;;;;2.58;0.50;;;;;;;;;;4978652;28;20362;-95
2022/12/26 13:29:55;;;;;;;17.75;2.13;;;;;;;;;;4978190;28;20019;-96
2022/12/26 13:32:25;;;;;;;2.08;0.50;;;;;;;;;;4978694;28;20054;-96
2022/12/26 13:34:51;;;;;;;3.45;0.55;;;;;;;;;;4979035;28;20019;-96
2022/12/26 13:37:35;;;;;;;4.70;0.65;;;;;;;;;;4977252;28;20019;-96
2022/12/26 13:40:02;;;;;;;4.05;0.77;;;;;;;;;;4977785;28;20425;-96
2022/12/26 13:45:36;;;;;;;1.42;0.65;;;;;;;;;;4980210;28;20029;-96
2022/12/26 13:48:22;;;;;;;4.05;0.60;;;;;;;;;;4979217;28;20041;-96
2022/12/26 13:50:50;;;;;;;6.50;1.33;;;;;;;;;;4997158;28;20047;-96
2022/12/26 13:53:22;;;;;;;6.40;1.95;;;;;;;;;;4977601;28;20105;-96
2022/12/26 13:55:48;;;;;;;2.85;0.50;;;;;;;;;;4977599;28;20019;-96
2022/12/26 13:58:33;;;;;;;1.13;0.30;;;;;;;;;;4978392;28;20031;-96
2022/12/26 14:01:17;;;;;;;1.05;0.20;;;;;;;;;;4975128;28;20027;-96
2022/12/26 14:03:43;;;;;;;2.53;0.38;;;;;;;;;;4979437;28;20023;-96
2022/12/26 14:06:08;;;;;;;4.55;0.68;;;;;;;;;;4979163;28;20061;-96
2022/12/26 14:08:40;;;;;;;2.05;0.73;;;;;;;;;;4978908;28;20129;-96
2022/12/26 14:11:05;;;;;;;1.45;0.40;;;;;;;;;;4978182;28;20035;-96
2022/12/26 14:13:32;;;;;;;3.83;0.50;;;;;;;;;;4978786;28;20027;-96
2022/12/26 14:15:57;;;;;;;1.02;0.20;;;;;;;;;;4977671;28;20041;-96
2022/12/26 14:18:23;;;;;;;0.70;0.30;;;;;;;;;;4978195;28;20524;-96
2022/12/26 14:20:55;;;;;;;2.40;0.50;;;;;;;;;;4979653;28;20039;-96
2022/12/26 14:23:25;;;;;;;6.00;0.75;;;;;;;;;;4977914;28;20019;-96
2022/12/26 14:25:51;;;;;;;1.48;0.25;;;;;;;;;;4978123;28;20548;-96
2022/12/26 14:28:22;;;;;;;2.15;0.60;;;;;;;;;;4976286;28;20077;-96
2022/12/26 14:31:06;;;;;;;1.92;0.47;;;;;;;;;;4977857;28;20011;-96
2022/12/26 14:33:36;;;;;;;1.05;0.40;;;;;;;;;;4976382;28;20031;-96
2022/12/26 14:36:20;;;;;;;2.25;0.50;;;;;;;;;;4976978;28;20019;-96
2022/12/26 14:39:02;;;;;;;7.47;0.60;;;;;;;;;;4977948;28;20019;-96
2022/12/26 14:44:21;;;;;;;3.03;0.57;;;;;;;;;;4982085;28;20036;-95
2022/12/26 14:46:49;;;;;;;2.70;0.30;;;;;;;;;;4981729;28;20472;-96
2022/12/26 14:49:41;;;;;;;7.65;0.90;;;;;;;;;;4979077;28;20042;-96
2022/12/26 14:52:22;;;;;;;4.20;1.75;;;;;;;;;;4982772;28;20061;-96
2022/12/26 14:54:47;;;;;;;4.82;0.47;;;;;;;;;;4980737;28;20084;-96
2022/12/26 14:57:31;;;;;;;1.67;0.40;;;;;;;;;;4980413;28;20023;-96
2022/12/26 15:00:15;;;;;;;7.22;0.73;;;;;;;;;;4981423;28;20027;-96
2022/12/26 15:02:43;;;;;;;9.13;0.98;;;;;;;;;;4979684;28;20023;-96
2022/12/26 15:05:18;;;;;;;8.48;0.77;;;;;;;;;;4980956;28;20023;-96
2022/12/26 15:07:59;;;;;;;3.00;0.50;;;;;;;;;;4981506;28;20019;-96
2022/12/26 15:10:33;;;;;;;1.60;0.50;;;;;;;;;;4979966;28;20023;-96
2022/12/26 15:13:04;;;;;;;3.30;0.70;;;;;;;;;;4980643;28;20027;-96
2022/12/26 15:16:02;;;;;;;8.48;0.70;;;;;;;;;;4980561;28;20027;-96
2022/12/26 15:18:46;;;;;;;3.05;0.50;;;;;;;;;;5000002;28;20019;-96
2022/12/26 15:21:31;;;;;;;2.25;0.43;;;;;;;;;;4979920;28;20050;-96
2022/12/26 15:23:59;;;;;;;6.22;0.50;;;;;;;;;;4980483;28;20015;-96
2022/12/26 15:26:27;;;;;;;3.88;0.80;;;;;;;;;;4978680;28;20026;-96
2022/12/26 15:28:53;;;;;;;6.50;0.60;;;;;;;;;;4980030;28;20031;-96
2022/12/26 15:31:35;;;;;;;2.58;0.60;;;;;;;;;;4980465;28;20023;-95
2022/12/26 15:34:00;;;;;;;;;;;;;;;;;;4981908;28;20393;-96
2022/12/26 15:36:35;;;;;;;1.92;1.23;;;;;;;;;;4980442;28;19906;-96
2022/12/26 15:39:14;;;;;;;3.38;1.10;;;;;;;;;;4980515;28;20027;-96
2022/12/26 15:41:42;;;;;;;1.63;0.63;;;;;;;;;;4980241;28;20022;-96
2022/12/26 15:44:17;;;;;;;4.07;1.05;;;;;;;;;;4980916;28;20033;-96
2022/12/26 15:46:49;;;;;;;3.63;0.77;;;;;;;;;;4980089;28;20031;-96
2022/12/26 15:49:53;;;;;;;4.50;1.58;;;;;;;;;;4978308;28;20038;-95
2022/12/26 15:52:29;;;;;;;6.38;1.00;;;;;;;;;;5015698;28;20039;-96
2022/12/26 15:54:54;;;;;;;6.50;0.80;;;;;;;;;;5017555;28;20057;-95
2022/12/26 15:57:22;;;;;;;13.05;2.38;;;;;;;;;;5004708;28;20031;-95
2022/12/26 16:00:23;;;;;;;3.58;0.55;;;;;;;;;;4979392;28;20477;-96
2022/12/26 16:02:54;;;;;;;2.67;0.80;;;;;;;;;;5018973;28;20021;-96
2022/12/26 16:05:38;;;;;;;4.45;0.73;;;;;;;;;;4999857;28;20110;-96
2022/12/26 16:08:06;;;;;;;5.47;0.40;;;;;;;;;;4980228;28;20393;-96
2022/12/26 16:10:34;;;;;;;2.60;0.90;;;;;;;;;;4978121;28;20055;-95
2022/12/26 16:13:00;;;;;;;2.58;1.00;;;;;;;;;;4976675;28;20033;-95
2022/12/26 16:15:26;;;;;;;7.60;2.15;;;;;;;;;;4979588;28;20019;-96
2022/12/26 16:17:51;;;;;;;4.22;0.52;;;;;;;;;;4978769;28;20062;-96
2022/12/26 16:23:11;;;;;;;7.15;1.15;;;;;;;;;;4980545;28;20053;-95
2022/12/26 16:25:36;;;;;;;4.28;0.63;;;;;;;;;;4978265;28;20042;-96
2022/12/26 16:28:01;;;;;;;4.03;0.60;;;;;;;;;;4977137;28;20038;-96
2022/12/26 16:30:29;;;;;;;3.13;1.30;;;;;;;;;;4978797;28;20022;-96
2022/12/26 16:32:54;;;;;;;6.55;0.65;;;;;;;;;;4979813;28;20018;-96
2022/12/26 16:35:19;;;;;;;7.65;0.65;;;;;;;;;;4981334;28;20030;-96
2022/12/26 16:37:51;;;;;;;5.53;0.80;;;;;;;;;;4980421;28;20025;-96
2022/12/26 16:40:18;;;;;;;3.03;0.60;;;;;;;;;;4980045;28;20038;-96
2022/12/26 16:42:53;;;;;;;3.20;0.90;;;;;;;;;;4978948;28;20031;-96
2022/12/26 16:45:19;;;;;;;4.25;0.88;;;;;;;;;;4979188;28;20484;-96
2022/12/26 16:47:48;;;;;;;5.68;1.05;;;;;;;;;;4977950;28;20102;-96
2022/12/26 16:50:15;;;;;;;7.78;0.88;;;;;;;;;;4978926;28;20026;-96
2022/12/26 16:52:40;;;;;;;5.18;0.75;;;;;;;;;;4980533;28;20023;-96
2022/12/26 16:55:21;;;;;;;2.22;0.88;;;;;;;;;;4978604;28;20053;-96
2022/12/26 16:57:47;;;;;;;4.43;0.82;;;;;;;;;;4980630;28;20057;-96
2022/12/26 17:00:16;;;;;;;5.55;0.95;;;;;;;;;;4980087;28;20054;-95
2022/12/26 17:02:44;;;;;;;5.35;1.10;;;;;;;;;;4978670;28;20117;-96
2022/12/26 17:05:25;;;;;;;4.15;0.88;;;;;;;;;;4977342;28;20023;-96